Time;durP1;ratioP1;P1;durP2;ratioP2;P2;SDS_P1;SDS_P2;PMS_P1;PMS_P2;Temp;Humidity;BMP_temperature;BMP_pressure;BME280_temperature;BME280_humidity;BME280_pressure;Samples;Min_cycle;Max_cycle;Signal;HPM_P1;HPM_P2
2023/05/30 00:02:06;;;;;;;8.70;3.63;;;;;;;14.24;69.47;98883.66;4967977;28;20751;-63
2023/05/30 00:04:57;;;;;;;9.03;4.27;;;;;;;14.20;69.72;98883.16;4964630;28;20301;-63
2023/05/30 00:07:24;;;;;;;7.30;4.03;;;;;;;14.35;69.73;98890.34;4965097;28;20306;-63
2023/05/30 00:09:50;;;;;;;7.97;4.23;;;;;;;14.74;64.56;98895.63;4967674;28;20226;-63
2023/05/30 00:12:18;;;;;;;7.83;4.53;;;;;;;14.68;65.31;98891.03;4965750;28;20230;-63
2023/05/30 00:14:47;;;;;;;6.83;3.70;;;;;;;15.12;63.92;98891.50;4964837;28;21015;-63
2023/05/30 00:17:17;;;;;;;11.17;4.43;;;;;;;15.15;63.88;98894.59;4967755;28;20316;-63
2023/05/30 00:19:44;;;;;;;8.07;4.27;;;;;;;15.30;62.74;98888.59;4964936;28;20227;-63
2023/05/30 00:22:11;;;;;;;7.67;3.93;;;;;;;15.18;63.61;98894.25;4967367;28;20302;-63
2023/05/30 00:24:39;;;;;;;9.50;4.70;;;;;;;15.14;64.10;98894.78;4964470;28;20249;-63
2023/05/30 00:27:07;;;;;;;7.27;4.47;;;;;;;15.07;63.67;98891.22;4968218;28;20253;-63
2023/05/30 00:29:41;;;;;;;6.40;4.47;;;;;;;14.86;65.74;98896.06;4953968;28;20222;-63
2023/05/30 00:32:08;;;;;;;8.37;4.37;;;;;;;14.68;66.63;98895.47;4965685;28;20236;-63
2023/05/30 00:34:39;;;;;;;10.83;4.83;;;;;;;14.51;67.70;98895.53;4963449;28;20226;-63
2023/05/30 00:37:08;;;;;;;9.70;4.20;;;;;;;14.39;69.22;98902.16;4966112;28;20300;-63
2023/05/30 00:39:39;;;;;;;7.87;4.60;;;;;;;14.24;68.87;98900.22;4962946;28;20230;-63
2023/05/30 00:42:07;;;;;;;10.67;4.53;;;;;;;14.28;67.42;98901.50;4955871;28;20280;-63
2023/05/30 00:44:41;;;;;;;6.93;4.13;;;;;;;14.31;68.27;98905.59;4964133;28;20261;-63
2023/05/30 00:47:07;;;;;;;7.30;4.47;;;;;;;14.30;69.94;98896.09;4966894;28;20229;-63
2023/05/30 00:49:40;;;;;;;6.17;4.43;;;;;;;14.17;69.93;98907.94;4961761;28;20693;-63
2023/05/30 00:52:08;;;;;;;8.03;4.63;;;;;;;14.14;69.67;98915.31;4965465;28;20702;-63
2023/05/30 00:54:42;;;;;;;8.47;4.40;;;;;;;14.22;68.94;98911.88;4958657;28;20222;-63
2023/05/30 00:57:09;;;;;;;7.23;3.93;;;;;;;14.39;67.49;98908.19;4964654;28;20258;-63
2023/05/30 00:59:41;;;;;;;7.23;4.50;;;;;;;14.45;67.58;98918.03;4961965;28;20234;-63
2023/05/30 01:02:08;;;;;;;9.50;3.97;;;;;;;14.37;69.06;98914.63;4965067;28;20318;-63
2023/05/30 01:04:40;;;;;;;7.93;4.60;;;;;;;14.26;68.88;98914.00;4961701;28;20229;-63
2023/05/30 01:07:12;;;;;;;7.83;4.20;;;;;;;14.18;69.07;98908.75;4966717;28;20233;-63
2023/05/30 01:09:39;;;;;;;8.13;4.77;;;;;;;14.07;70.10;98904.69;4957093;28;20748;-63
2023/05/30 01:12:17;;;;;;;7.97;4.20;;;;;;;14.04;70.63;98902.38;4966731;28;20304;-63
2023/05/30 01:14:53;;;;;;;8.87;4.60;;;;;;;13.99;70.88;98908.13;4963811;28;20234;-63
2023/05/30 01:17:25;;;;;;;7.43;4.30;;;;;;;13.92;71.07;98901.88;4966360;28;20700;-63
2023/05/30 01:20:07;;;;;;;7.57;3.87;;;;;;;13.97;70.64;98901.41;4963955;28;20613;-63
2023/05/30 01:22:49;;;;;;;7.67;4.60;;;;;;;13.99;70.59;98902.88;4951185;28;20566;-63
2023/05/30 01:25:27;;;;;;;8.93;4.40;;;;;;;13.96;70.24;98902.41;4961621;28;20317;-63
2023/05/30 01:28:05;;;;;;;7.23;4.30;;;;;;;13.96;70.71;98895.31;4963479;28;20292;-63
2023/05/30 01:30:33;;;;;;;8.90;4.23;;;;;;;13.96;70.06;98887.47;4963509;28;20236;-63
2023/05/30 01:33:02;;;;;;;8.87;4.03;;;;;;;14.14;69.66;98892.53;4957405;28;20240;-63
2023/05/30 01:35:28;;;;;;;6.07;3.83;;;;;;;14.07;69.28;98888.09;4961460;28;20248;-63
2023/05/30 01:37:59;;;;;;;7.33;4.63;;;;;;;14.15;69.15;98883.66;4965278;28;20233;-63
2023/05/30 01:40:28;;;;;;;9.53;4.27;;;;;;;14.26;68.92;98884.31;4963608;28;20704;-63
2023/05/30 01:42:59;;;;;;;7.40;4.10;;;;;;;14.44;68.25;98887.50;4963792;28;20269;-63
2023/05/30 01:45:38;;;;;;;7.37;4.20;;;;;;;14.40;67.62;98894.09;4951425;28;20311;-63
2023/05/30 01:48:11;;;;;;;11.57;4.80;;;;;;;14.38;67.71;98896.06;4963891;28;20314;-63
2023/05/30 01:50:44;;;;;;;5.80;3.83;;;;;;;14.40;68.87;98882.78;4977454;28;20246;-63
2023/05/30 01:53:17;;;;;;;6.90;4.00;;;;;;;14.35;68.88;98878.00;4963795;28;20258;-63
2023/05/30 01:55:46;;;;;;;6.37;3.77;;;;;;;14.26;68.93;98881.69;4955521;28;20237;-63
2023/05/30 01:58:16;;;;;;;8.80;4.10;;;;;;;14.41;67.95;98882.59;4964775;28;20222;-63
2023/05/30 02:00:46;;;;;;;8.93;4.43;;;;;;;14.53;66.72;98876.97;4961046;28;20578;-63
2023/05/30 02:03:12;;;;;;;8.60;4.33;;;;;;;14.48;67.34;98877.50;4965074;28;20245;-63
2023/05/30 02:05:39;;;;;;;6.27;3.77;;;;;;;14.50;66.82;98874.69;4961692;28;20645;-63
2023/05/30 02:08:06;;;;;;;7.33;4.47;;;;;;;14.59;66.74;98871.88;4957385;28;20229;-63
2023/05/30 02:10:32;;;;;;;9.27;4.60;;;;;;;14.50;66.85;98875.53;4961032;28;20223;-63
2023/05/30 02:12:59;;;;;;;7.67;4.03;;;;;;;14.51;67.15;98884.19;4956009;28;20247;-63
2023/05/30 02:15:26;;;;;;;9.97;4.30;;;;;;;14.43;66.90;98878.00;4953428;28;20233;-63
2023/05/30 02:17:54;;;;;;;13.73;4.07;;;;;;;14.37;67.91;98880.47;4957452;28;20246;-63
2023/05/30 02:20:20;;;;;;;11.27;4.20;;;;;;;14.29;67.97;98884.78;4963566;28;20312;-63
2023/05/30 02:22:47;;;;;;;7.73;4.47;;;;;;;14.34;67.54;98884.25;4964089;28;20226;-63
2023/05/30 02:25:13;;;;;;;9.63;4.10;;;;;;;14.26;69.07;98884.31;4964988;28;20234;-63
2023/05/30 02:27:40;;;;;;;9.20;3.93;;;;;;;14.16;70.00;98885.31;4950339;28;20233;-63
2023/05/30 02:30:08;;;;;;;9.40;4.03;;;;;;;13.96;71.07;98873.53;4964501;28;20243;-63
2023/05/30 02:32:35;;;;;;;7.10;4.27;;;;;;;13.89;74.32;98875.97;4961249;28;20698;-63
2023/05/30 02:35:02;;;;;;;6.47;4.30;;;;;;;13.77;74.87;98874.72;4963051;28;20240;-63
2023/05/30 02:37:29;;;;;;;7.53;4.40;;;;;;;13.63;75.72;98866.53;4966122;28;20261;-63
2023/05/30 02:39:56;;;;;;;9.67;4.60;;;;;;;13.52;77.02;98872.09;4967631;28;20653;-63
2023/05/30 02:42:23;;;;;;;9.57;4.30;;;;;;;13.45;77.77;98874.53;4965038;28;20230;-63
2023/05/30 02:44:50;;;;;;;9.50;4.30;;;;;;;13.37;78.84;98882.34;4966722;28;20437;-63
2023/05/30 02:47:17;;;;;;;8.13;4.13;;;;;;;13.23;79.76;98876.81;4967453;28;20309;-63
2023/05/30 02:49:43;;;;;;;7.80;4.47;;;;;;;13.25;80.85;98879.25;4963754;28;20239;-63
2023/05/30 02:52:11;;;;;;;8.93;5.00;;;;;;;13.27;80.64;98877.28;4966485;28;20228;-63
2023/05/30 02:54:51;;;;;;;11.13;4.90;;;;;;;13.24;80.91;98875.81;4979702;28;20233;-63
2023/05/30 02:57:35;;;;;;;7.13;4.50;;;;;;;13.15;81.32;98884.66;4966201;28;20236;-63
2023/05/30 03:00:20;;;;;;;11.07;5.37;;;;;;;12.98;82.34;98871.50;4966897;28;20248;-63
2023/05/30 03:02:59;;;;;;;7.47;4.53;;;;;;;12.88;83.34;98883.91;4955930;28;20238;-63
2023/05/30 03:05:26;;;;;;;8.20;4.63;;;;;;;12.89;83.00;98882.09;4964113;28;20299;-63
2023/05/30 03:07:54;;;;;;;7.73;4.40;;;;;;;12.94;83.87;98885.06;4967070;28;20326;-63
2023/05/30 03:10:21;;;;;;;9.10;4.27;;;;;;;12.82;83.77;98887.97;4963966;28;20759;-63
2023/05/30 03:12:49;;;;;;;9.60;4.40;;;;;;;12.74;84.07;98885.34;4967481;28;20720;-63
2023/05/30 03:15:17;;;;;;;6.60;4.27;;;;;;;12.73;84.82;98888.13;4983930;28;20310;-63
2023/05/30 03:17:44;;;;;;;9.53;4.50;;;;;;;12.63;85.66;98883.84;4962664;28;20229;-63
2023/05/30 03:20:14;;;;;;;7.93;4.23;;;;;;;12.55;84.90;98883.78;4967030;28;20230;-63
2023/05/30 03:22:42;;;;;;;8.27;4.40;;;;;;;12.46;85.07;98890.81;4963745;28;20585;-63
2023/05/30 03:25:12;;;;;;;8.47;4.80;;;;;;;12.38;85.26;98882.91;4966536;28;20236;-63
2023/05/30 03:27:39;;;;;;;9.67;4.53;;;;;;;12.34;85.57;98889.44;4952348;28;20231;-63
2023/05/30 03:32:53;;;;;;;7.70;4.30;;;;;;;12.27;87.22;98883.97;5054759;23;20935;-64
2023/05/30 03:35:20;;;;;;;8.20;4.70;;;;;;;12.31;87.46;98884.50;4967048;28;20743;-64
2023/05/30 03:37:46;;;;;;;7.83;3.90;;;;;;;12.26;86.39;98884.97;4946118;28;20232;-64
2023/05/30 03:40:14;;;;;;;8.20;4.37;;;;;;;12.18;86.46;98880.50;4949310;28;20248;-64
2023/05/30 03:42:43;;;;;;;6.47;4.37;;;;;;;12.24;87.59;98886.91;4946736;28;20246;-63
2023/05/30 03:45:12;;;;;;;9.80;4.50;;;;;;;12.24;87.92;98884.28;4951773;28;20234;-63
2023/05/30 03:47:38;;;;;;;9.27;5.10;;;;;;;12.18;87.57;98883.13;4948385;28;20241;-63
2023/05/30 03:50:05;;;;;;;9.07;4.90;;;;;;;12.22;87.86;98884.47;4953160;28;20216;-63
2023/05/30 03:52:32;;;;;;;7.43;4.70;;;;;;;12.17;87.20;98884.09;4949634;28;20825;-63
2023/05/30 03:55:01;;;;;;;8.47;4.37;;;;;;;12.16;87.92;98879.03;4965108;28;20236;-63
2023/05/30 03:57:29;;;;;;;7.87;4.20;;;;;;;12.22;86.61;98884.47;4955128;28;20760;-61
2023/05/30 03:59:55;;;;;;;7.33;4.17;;;;;;;12.21;86.03;98882.81;4954880;28;20842;-63
2023/05/30 04:02:22;;;;;;;8.30;4.20;;;;;;;12.29;87.33;98889.06;4956811;28;20245;-63
2023/05/30 04:04:48;;;;;;;6.23;4.07;;;;;;;12.29;86.30;98886.47;4949598;28;20295;-63
2023/05/30 04:07:16;;;;;;;7.90;4.43;;;;;;;12.33;85.33;98893.03;4953429;28;20264;-63
2023/05/30 04:09:43;;;;;;;8.50;4.70;;;;;;;12.38;85.49;98898.63;4931580;28;20241;-63
2023/05/30 04:12:11;;;;;;;8.73;4.53;;;;;;;12.44;85.00;98895.38;4952373;28;20236;-63
2023/05/30 04:14:41;;;;;;;12.60;3.93;;;;;;;12.51;84.15;98904.25;4944082;28;20225;-63
2023/05/30 04:17:08;;;;;;;8.63;4.37;;;;;;;12.67;83.46;98906.09;4943423;28;20233;-63
2023/05/30 04:19:39;;;;;;;8.43;4.20;;;;;;;12.81;82.99;98903.88;4959959;28;20232;-63
2023/05/30 04:22:07;;;;;;;6.40;4.10;;;;;;;12.93;83.65;98902.59;4954338;28;20243;-63
2023/05/30 04:24:39;;;;;;;6.30;4.10;;;;;;;12.98;83.69;98907.34;4945051;28;20284;-63
2023/05/30 04:27:07;;;;;;;8.47;4.37;;;;;;;13.09;82.62;98916.75;4966026;28;20231;-63
2023/05/30 04:29:41;;;;;;;9.90;4.30;;;;;;;13.16;82.15;98916.91;4943508;28;20236;-63
2023/05/30 04:32:09;;;;;;;8.23;4.60;;;;;;;13.28;81.34;98915.63;4948831;28;20237;-63
2023/05/30 04:34:39;;;;;;;9.07;4.77;;;;;;;13.39;81.46;98912.69;4942756;28;20625;-63
2023/05/30 04:37:07;;;;;;;7.97;4.10;;;;;;;13.49;82.39;98923.03;4950717;28;20309;-63
2023/05/30 04:39:39;;;;;;;5.83;4.20;;;;;;;13.56;81.81;98923.22;4959878;28;20230;-63
2023/05/30 04:42:07;;;;;;;6.83;4.47;;;;;;;13.64;81.05;98927.66;4945886;28;20230;-63
2023/05/30 04:44:39;;;;;;;8.03;4.20;;;;;;;13.69;80.79;98931.44;4945357;28;20233;-63
2023/05/30 04:47:10;;;;;;;12.27;4.10;;;;;;;13.74;80.15;98928.31;4953980;28;20634;-63
2023/05/30 04:49:41;;;;;;;6.47;3.93;;;;;;;13.79;79.84;98943.56;4941883;28;20781;-64
2023/05/30 04:52:08;;;;;;;7.10;4.23;;;;;;;13.84;79.97;98930.75;4952205;28;20230;-64
2023/05/30 04:54:39;;;;;;;6.50;3.73;;;;;;;13.91;79.92;98936.19;4944736;28;20219;-64
2023/05/30 04:57:07;;;;;;;8.93;4.30;;;;;;;13.99;80.38;98934.38;4951253;28;20324;-64
2023/05/30 04:59:40;;;;;;;6.73;4.07;;;;;;;14.06;80.20;98938.94;4944585;28;20242;-64
2023/05/30 05:02:10;;;;;;;7.07;4.30;;;;;;;14.13;79.56;98934.69;4952656;28;20683;-64
2023/05/30 05:04:39;;;;;;;5.90;3.97;;;;;;;14.17;78.80;98931.56;4944706;28;20238;-64
2023/05/30 05:07:06;;;;;;;10.67;4.27;;;;;;;14.24;78.91;98944.84;4948038;28;20229;-64
2023/05/30 05:09:58;;;;;;;6.63;4.40;;;;;;;14.29;81.10;98946.97;4946874;28;20705;-64
2023/05/30 05:12:24;;;;;;;7.87;4.30;;;;;;;14.35;80.47;98950.72;4944749;28;20242;-62
2023/05/30 05:14:51;;;;;;;8.80;3.80;;;;;;;14.40;79.76;98956.31;4947960;28;20246;-62
2023/05/30 05:17:19;;;;;;;6.80;4.13;;;;;;;14.48;79.77;98951.03;4948740;28;20230;-62
2023/05/30 05:19:46;;;;;;;7.93;4.37;;;;;;;14.56;79.20;98953.66;4944474;28;20238;-63
2023/05/30 05:22:13;;;;;;;7.63;4.60;;;;;;;14.68;77.97;98946.22;4946832;28;20320;-62
2023/05/30 05:24:39;;;;;;;7.53;4.30;;;;;;;14.84;77.00;98949.81;4941739;28;20231;-62
2023/05/30 05:27:07;;;;;;;7.73;4.20;;;;;;;14.99;76.07;98955.16;4949615;28;20719;-62
2023/05/30 05:29:39;;;;;;;8.80;4.13;;;;;;;15.19;77.30;98955.56;4947687;28;20231;-62
2023/05/30 05:32:07;;;;;;;7.40;4.90;;;;;;;15.26;75.59;98953.88;4947468;28;20294;-62
2023/05/30 05:34:41;;;;;;;7.03;3.97;;;;;;;15.31;73.24;98953.34;4945100;28;20220;-62
2023/05/30 05:37:07;;;;;;;8.17;4.47;;;;;;;15.49;68.66;98953.91;4948597;28;20237;-62
2023/05/30 05:39:39;;;;;;;6.90;4.37;;;;;;;15.42;67.64;98954.75;4943717;28;20245;-62
2023/05/30 05:42:06;;;;;;;9.97;4.40;;;;;;;15.47;72.34;98958.50;4948549;28;20242;-62
2023/05/30 05:44:57;;;;;;;5.87;3.83;;;;;;;15.41;67.64;98956.56;4946412;28;20313;-62
2023/05/30 05:47:24;;;;;;;7.77;3.90;;;;;;;15.46;67.42;98962.13;4948028;28;20235;-62
2023/05/30 05:49:52;;;;;;;10.93;4.40;;;;;;;15.74;66.73;98960.78;4949275;28;20312;-62
2023/05/30 05:52:20;;;;;;;13.30;4.60;;;;;;;15.72;66.31;98963.59;4947214;28;20263;-62
2023/05/30 05:54:46;;;;;;;10.60;4.63;;;;;;;15.76;66.98;98974.59;4946156;28;20231;-62
2023/05/30 05:57:13;;;;;;;7.20;4.20;;;;;;;15.88;66.87;98970.59;4948529;28;20234;-62
2023/05/30 05:59:40;;;;;;;9.03;4.50;;;;;;;15.77;65.76;98973.59;4943061;28;20238;-62
2023/05/30 06:02:06;;;;;;;11.70;4.87;;;;;;;15.76;66.37;98985.13;4946454;28;20245;-62
2023/05/30 06:04:59;;;;;;;10.13;4.57;;;;;;;15.89;65.70;98993.28;4944760;28;20296;-62
2023/05/30 06:07:26;;;;;;;12.87;4.07;;;;;;;16.12;64.22;98992.44;4944897;28;20285;-62
2023/05/30 06:09:52;;;;;;;7.93;4.37;;;;;;;16.10;63.81;98991.81;4949903;28;20226;-63
2023/05/30 06:12:19;;;;;;;6.87;4.37;;;;;;;16.22;63.37;98993.00;4951476;28;20241;-63
2023/05/30 06:14:46;;;;;;;9.97;4.63;;;;;;;16.46;62.35;98990.31;4947135;28;20258;-63
2023/05/30 06:17:12;;;;;;;10.87;4.83;;;;;;;16.47;62.35;98994.59;4949370;28;20235;-63
2023/05/30 06:19:39;;;;;;;9.67;4.67;;;;;;;16.35;62.51;98995.03;4947634;28;23394;-63
2023/05/30 06:22:07;;;;;;;6.80;4.33;;;;;;;16.55;61.97;98994.50;4951418;28;20239;-63
2023/05/30 06:24:39;;;;;;;9.23;4.53;;;;;;;16.67;61.46;98997.50;4944374;28;20623;-63
2023/05/30 06:27:07;;;;;;;10.73;4.30;;;;;;;16.72;61.63;99004.88;4950953;28;20347;-63
2023/05/30 06:29:39;;;;;;;8.57;4.23;;;;;;;17.01;59.82;98996.16;4947494;28;20234;-63
2023/05/30 06:32:07;;;;;;;9.70;4.07;;;;;;;17.01;59.88;99008.53;4952378;28;20332;-63
2023/05/30 06:34:39;;;;;;;8.93;4.30;;;;;;;16.86;61.91;98998.78;4947746;28;20248;-63
2023/05/30 06:37:07;;;;;;;9.37;5.03;;;;;;;16.90;60.94;99007.16;4951960;28;20247;-63
2023/05/30 06:39:40;;;;;;;7.40;4.03;;;;;;;16.74;61.14;99008.97;4949394;28;20397;-63
2023/05/30 06:42:07;;;;;;;11.43;3.97;;;;;;;16.86;61.52;99004.06;4949471;28;20759;-63
2023/05/30 06:44:45;;;;;;;6.97;4.00;;;;;;;17.22;60.79;99005.94;4947119;28;20239;-63
2023/05/30 06:47:12;;;;;;;7.53;4.23;;;;;;;17.36;59.57;99011.38;4951875;28;20236;-63
2023/05/30 06:49:39;;;;;;;8.27;4.30;;;;;;;17.29;59.02;99015.78;4942731;28;20235;-63
2023/05/30 06:52:08;;;;;;;10.03;4.63;;;;;;;17.14;59.63;99011.31;4946871;28;20327;-63
2023/05/30 06:54:40;;;;;;;6.20;4.03;;;;;;;17.67;60.15;99020.88;4945413;28;20242;-63
2023/05/30 06:57:07;;;;;;;7.83;4.07;;;;;;;17.78;57.98;99012.44;4951930;28;20237;-63
2023/05/30 06:59:39;;;;;;;10.47;3.77;;;;;;;17.99;57.39;99011.66;4948795;28;20414;-63
2023/05/30 07:02:06;;;;;;;8.10;3.87;;;;;;;18.01;57.60;99016.75;4951778;28;20265;-63
2023/05/30 07:04:58;;;;;;;6.53;3.70;;;;;;;18.20;57.13;99019.75;4947145;28;20239;-63
2023/05/30 07:07:26;;;;;;;6.90;4.00;;;;;;;18.19;56.75;99020.75;4949078;28;20232;-63
2023/05/30 07:09:52;;;;;;;6.37;4.07;;;;;;;18.07;57.41;99021.25;4952989;28;20240;-63
2023/05/30 07:12:19;;;;;;;8.90;4.13;;;;;;;18.24;55.69;99019.19;4953186;28;20240;-63
2023/05/30 07:14:45;;;;;;;9.20;3.73;;;;;;;17.83;57.38;99027.72;4947308;28;20244;-63
2023/05/30 07:17:12;;;;;;;8.90;3.77;;;;;;;18.00;56.55;99021.22;4949921;28;20240;-63
2023/05/30 07:19:40;;;;;;;7.70;4.40;;;;;;;18.13;56.68;99020.50;4947486;28;20286;-63
2023/05/30 07:22:07;;;;;;;6.33;3.40;;;;;;;18.40;56.54;99031.28;4953169;28;20291;-63
2023/05/30 07:24:59;;;;;;;7.03;3.57;;;;;;;18.55;55.80;99011.88;4945519;28;20245;-63
2023/05/30 07:27:26;;;;;;;8.13;4.10;;;;;;;19.00;54.17;99012.38;4948129;28;20238;-63
2023/05/30 07:29:52;;;;;;;9.53;4.60;;;;;;;18.78;54.53;99016.88;4950687;28;20301;-63
2023/05/30 07:32:19;;;;;;;9.37;4.27;;;;;;;18.43;55.11;99015.03;4949586;28;20234;-63
2023/05/30 07:34:48;;;;;;;8.50;4.47;;;;;;;18.62;54.64;99010.09;4946015;28;21109;-63
2023/05/30 07:37:14;;;;;;;7.20;4.37;;;;;;;18.58;54.43;99014.94;4951914;28;20232;-63
2023/05/30 07:39:41;;;;;;;7.60;4.23;;;;;;;18.54;55.34;99013.72;4947060;28;20726;-63
2023/05/30 07:42:09;;;;;;;8.33;3.57;;;;;;;18.29;56.81;99008.03;4950553;28;20766;-63
2023/05/30 07:44:39;;;;;;;6.57;3.60;;;;;;;18.59;56.42;99011.28;4947564;28;22786;-63
2023/05/30 07:47:07;;;;;;;7.07;3.30;;;;;;;18.58;54.87;99007.00;4949638;28;20869;-63
2023/05/30 07:49:40;;;;;;;8.23;4.27;;;;;;;18.54;56.01;99007.59;4946388;28;20291;-63
2023/05/30 07:52:07;;;;;;;7.97;4.90;;;;;;;18.56;55.76;99011.66;4949148;28;20338;-63
2023/05/30 07:54:40;;;;;;;8.03;4.20;;;;;;;18.65;55.83;99004.41;4945931;28;20244;-63
2023/05/30 07:57:06;;;;;;;6.83;3.47;;;;;;;18.40;56.01;99010.16;4950725;28;20229;-63
2023/05/30 08:00:00;;;;;;;5.30;3.47;;;;;;;18.77;55.93;99006.53;4947381;28;20265;-63
2023/05/30 08:02:26;;;;;;;8.80;4.13;;;;;;;18.94;54.66;99005.19;4947125;28;20233;-63
2023/05/30 08:04:53;;;;;;;7.53;3.70;;;;;;;19.23;55.44;99005.94;4947608;28;20242;-63
2023/05/30 08:07:20;;;;;;;9.50;3.90;;;;;;;19.12;54.09;99011.78;4947233;28;20244;-63
2023/05/30 08:09:46;;;;;;;7.83;4.00;;;;;;;19.36;52.92;99007.00;4949626;28;20237;-63
2023/05/30 08:12:17;;;;;;;7.23;4.20;;;;;;;19.50;53.16;99008.66;4948751;28;20305;-63
2023/05/30 08:14:44;;;;;;;7.67;4.03;;;;;;;19.45;54.05;99017.22;4946324;28;20228;-63
2023/05/30 08:17:13;;;;;;;8.77;4.03;;;;;;;19.48;53.24;99018.66;4949182;28;20237;-63
2023/05/30 08:19:40;;;;;;;10.40;4.13;;;;;;;19.53;52.82;99008.28;4945522;28;21282;-63
2023/05/30 08:22:07;;;;;;;7.13;4.07;;;;;;;19.35;53.00;99014.13;4951039;28;20258;-63
2023/05/30 08:24:41;;;;;;;8.47;4.23;;;;;;;19.49;53.30;99017.63;4946393;28;20270;-63
2023/05/30 08:27:10;;;;;;;6.20;3.90;;;;;;;19.72;52.86;99019.13;4946376;28;20321;-63
2023/05/30 08:29:40;;;;;;;9.00;4.20;;;;;;;19.99;52.27;99019.19;4943882;28;20263;-63
2023/05/30 08:32:07;;;;;;;4.63;3.33;;;;;;;20.08;51.47;99023.28;4948700;28;20241;-63
2023/05/30 08:34:41;;;;;;;7.23;4.10;;;;;;;20.42;50.32;99026.72;4944681;28;21242;-63
2023/05/30 08:37:07;;;;;;;7.27;4.00;;;;;;;20.62;48.80;99026.72;4949201;28;20626;-63
2023/05/30 08:39:40;;;;;;;8.30;4.00;;;;;;;20.89;48.70;99017.91;4950627;28;20638;-63
2023/05/30 08:42:07;;;;;;;7.00;3.67;;;;;;;20.48;49.04;99019.78;4953367;28;20734;-63
2023/05/30 08:44:40;;;;;;;8.03;4.20;;;;;;;20.46;49.34;99027.13;4946109;28;20242;-63
2023/05/30 08:47:12;;;;;;;7.73;3.80;;;;;;;20.67;48.55;99010.16;4949190;28;20226;-63
2023/05/30 08:49:42;;;;;;;7.07;3.60;;;;;;;20.99;48.24;99017.44;4946822;28;21358;-63
2023/05/30 08:52:13;;;;;;;9.07;4.00;;;;;;;20.85;47.96;99014.03;4948422;28;20237;-63
2023/05/30 08:54:44;;;;;;;8.13;4.10;;;;;;;20.82;47.84;99012.59;4945705;28;29853;-63
2023/05/30 08:57:18;;;;;;;8.87;4.10;;;;;;;20.11;50.00;99011.44;4946333;28;20245;-63
2023/05/30 08:59:47;;;;;;;8.40;4.40;;;;;;;19.80;50.81;99015.44;4944438;28;20241;-63
2023/05/30 09:02:14;;;;;;;7.10;3.70;;;;;;;20.02;50.15;99010.84;4950063;28;20245;-63
2023/05/30 09:04:43;;;;;;;12.10;3.60;;;;;;;20.31;49.58;99016.72;4947185;28;20247;-63
2023/05/30 09:07:12;;;;;;;6.97;3.93;;;;;;;20.23;50.35;99009.81;4954098;28;20236;-63
2023/05/30 09:09:42;;;;;;;7.30;3.90;;;;;;;20.44;49.06;99015.91;4944470;28;20246;-63
2023/05/30 09:12:09;;;;;;;8.57;3.90;;;;;;;20.38;48.92;99012.25;4946544;28;20240;-63
2023/05/30 09:14:40;;;;;;;6.33;3.67;;;;;;;20.32;49.39;99005.09;4944659;28;22636;-63
2023/05/30 09:17:07;;;;;;;5.13;3.77;;;;;;;20.25;48.92;99012.25;4948061;28;20215;-63
2023/05/30 09:19:41;;;;;;;7.10;3.73;;;;;;;20.33;49.12;99017.34;4945088;28;21914;-63
2023/05/30 09:22:08;;;;;;;9.17;4.00;;;;;;;20.60;48.18;99017.31;4948142;28;20233;-63
2023/05/30 09:25:00;;;;;;;5.50;3.43;;;;;;;20.60;48.03;99009.34;4945372;28;23877;-63
2023/05/30 09:27:28;;;;;;;11.43;3.90;;;;;;;20.62;48.50;99018.75;4944324;28;20328;-63
2023/05/30 09:29:55;;;;;;;6.43;3.73;;;;;;;20.53;48.31;99027.13;4947484;28;20234;-63
2023/05/30 09:32:28;;;;;;;6.57;3.60;;;;;;;20.50;48.10;99023.84;4948010;28;20230;-63
2023/05/30 09:34:57;;;;;;;9.03;4.10;;;;;;;20.50;48.45;99021.19;4949340;28;20280;-63
2023/05/30 09:37:23;;;;;;;11.10;3.93;;;;;;;20.78;48.91;99017.50;4948692;28;20226;-63
2023/05/30 09:40:08;;;;;;;10.10;3.57;;;;;;;20.72;47.17;99017.47;4949562;28;20245;-63
2023/05/30 09:42:42;;;;;;;9.43;3.60;;;;;;;20.93;47.53;99025.22;4944532;28;20249;-63
2023/05/30 09:45:11;;;;;;;10.40;4.00;;;;;;;20.82;46.95;99017.91;4946077;28;20233;-63
2023/05/30 09:47:42;;;;;;;7.53;3.63;;;;;;;20.60;46.88;99030.56;4944459;28;20258;-63
2023/05/30 09:50:12;;;;;;;6.63;4.17;;;;;;;20.72;46.17;99012.19;4947347;28;20247;-63
2023/05/30 09:52:40;;;;;;;9.20;3.60;;;;;;;20.83;46.78;99022.19;4944202;28;20233;-63
2023/05/30 09:55:07;;;;;;;8.63;3.70;;;;;;;20.96;46.44;99025.81;4947918;28;20315;-63
2023/05/30 09:57:36;;;;;;;9.80;4.10;;;;;;;21.04;45.44;99018.47;4945742;28;20233;-63
2023/05/30 10:00:11;;;;;;;7.17;3.27;;;;;;;20.97;45.97;99022.97;4949010;28;20328;-63
2023/05/30 10:02:39;;;;;;;8.30;4.00;;;;;;;21.02;45.60;99025.81;4944159;28;20714;-63
2023/05/30 10:05:17;;;;;;;8.30;3.77;;;;;;;20.70;46.12;99033.63;4945564;28;20237;-63
2023/05/30 10:07:45;;;;;;;6.37;3.63;;;;;;;20.98;45.17;99029.91;4943798;28;20342;-63
2023/05/30 10:10:13;;;;;;;8.60;3.90;;;;;;;20.91;45.06;99015.84;4944588;28;20235;-63
2023/05/30 10:12:41;;;;;;;6.10;3.20;;;;;;;21.01;45.16;99016.22;4944606;28;20237;-63
2023/05/30 10:15:09;;;;;;;8.17;3.97;;;;;;;21.33;44.67;99020.78;4946741;28;20237;-63
2023/05/30 10:17:39;;;;;;;8.30;3.43;;;;;;;21.26;44.62;99022.66;4947212;28;20317;-63
2023/05/30 10:20:10;;;;;;;6.93;3.70;;;;;;;21.33;44.28;99021.59;4947545;28;20292;-63
2023/05/30 10:22:40;;;;;;;7.63;3.47;;;;;;;21.07;44.55;99020.69;4945596;28;20263;-63
2023/05/30 10:25:09;;;;;;;7.03;3.83;;;;;;;21.36;44.86;99018.50;4947143;28;20701;-63
2023/05/30 10:27:43;;;;;;;10.30;3.60;;;;;;;21.56;44.93;99012.28;4945946;28;20765;-63
2023/05/30 10:30:12;;;;;;;5.40;3.33;;;;;;;21.57;44.49;99003.28;4946449;28;20233;-63
2023/05/30 10:32:42;;;;;;;7.87;3.73;;;;;;;21.65;43.53;98997.75;4945131;28;20247;-63
2023/05/30 10:35:12;;;;;;;8.60;3.57;;;;;;;21.45;43.61;99002.34;4943739;28;20234;-63
2023/05/30 10:37:39;;;;;;;6.73;3.30;;;;;;;21.73;43.42;98999.31;4943173;28;20229;-63
2023/05/30 10:40:20;;;;;;;8.90;3.33;;;;;;;22.00;44.15;98999.13;4947293;28;20267;-63
2023/05/30 10:42:59;;;;;;;10.40;3.23;;;;;;;21.96;42.29;98998.78;4945047;28;20327;-63
2023/05/30 10:45:35;;;;;;;9.07;3.67;;;;;;;21.84;41.85;98992.53;4944344;28;20227;-63
2023/05/30 10:48:12;;;;;;;10.07;3.87;;;;;;;21.88;42.85;98990.25;4946358;28;20252;-63
2023/05/30 10:50:42;;;;;;;5.80;3.37;;;;;;;21.95;42.02;98991.84;4945740;28;20754;-63
2023/05/30 10:53:14;;;;;;;7.63;3.50;;;;;;;22.14;42.65;98989.22;4943318;28;20294;-63
2023/05/30 10:55:43;;;;;;;6.33;3.37;;;;;;;22.47;42.28;98996.09;4942710;28;20243;-63
2023/05/30 10:58:35;;;;;;;7.93;3.83;;;;;;;22.51;39.59;98991.16;4950672;28;20243;-63
2023/05/30 11:01:23;;;;;;;6.27;3.20;;;;;;;22.18;40.85;98992.25;4944164;28;20326;-63
2023/05/30 11:03:55;;;;;;;10.37;3.53;;;;;;;22.10;40.86;98985.38;4947278;28;20344;-63
2023/05/30 11:06:21;;;;;;;6.87;3.50;;;;;;;21.86;41.40;98987.81;4945259;28;20650;-63
2023/05/30 11:08:52;;;;;;;7.67;3.10;;;;;;;22.08;40.63;98992.75;4951199;28;20296;-63
2023/05/30 11:11:21;;;;;;;7.17;4.00;;;;;;;22.12;40.73;98992.09;4949189;28;20292;-63
2023/05/30 11:13:49;;;;;;;12.60;3.90;;;;;;;21.91;40.41;99003.91;4944949;28;20227;-64
2023/05/30 11:16:23;;;;;;;8.10;3.50;;;;;;;22.07;40.81;98983.16;4950982;28;20244;-63
2023/05/30 11:18:50;;;;;;;7.93;3.50;;;;;;;22.07;41.49;98991.94;4948125;28;20233;-63
2023/05/30 11:21:59;;;;;;;8.17;2.80;;;;;;;22.03;40.53;98985.41;4952246;28;20244;-63
2023/05/30 11:24:26;;;;;;;7.90;3.37;;;;;;;22.23;41.07;98974.63;4943282;28;20728;-63
2023/05/30 11:29:51;;;;;;;7.40;3.60;;;;;;;22.45;39.42;98982.22;5058734;27;20617;-64
2023/05/30 11:32:19;;;;;;;5.83;3.80;;;;;;;22.54;40.31;98970.25;5050131;28;20272;-64
2023/05/30 11:34:48;;;;;;;6.23;3.27;;;;;;;22.46;40.19;98981.19;5047190;28;20301;-64
2023/05/30 11:37:15;;;;;;;9.63;3.50;;;;;;;22.28;40.13;98976.63;5051829;28;20289;-64
2023/05/30 11:39:42;;;;;;;6.70;3.60;;;;;;;22.40;39.88;98982.03;5052262;28;20706;-64
2023/05/30 11:42:08;;;;;;;6.57;3.43;;;;;;;22.23;40.50;98976.47;5053493;28;20256;-64
2023/05/30 11:44:42;;;;;;;6.00;3.30;;;;;;;22.65;39.87;98968.72;5052996;28;20231;-64
2023/05/30 11:47:11;;;;;;;7.67;3.57;;;;;;;22.74;40.11;98961.25;5054164;28;20234;-64
2023/05/30 11:49:39;;;;;;;7.77;3.70;;;;;;;22.88;40.11;98961.88;5050781;28;20254;-64
2023/05/30 11:52:07;;;;;;;6.60;3.77;;;;;;;22.73;39.42;98961.47;5054393;28;20378;-64